Time;durP1;ratioP1;P1;durP2;ratioP2;P2;SDS_P1;SDS_P2;PMS_P1;PMS_P2;Temp;Humidity;BMP_temperature;BMP_pressure;BME280_temperature;BME280_humidity;BME280_pressure;Samples;Min_cycle;Max_cycle;Signal;HPM_P1;HPM_P2
2022/06/13 00:01:28;;;;;;;20.90;9.90;;;17.20;99.90;;;;;;5051085;28;21065;-70
2022/06/13 00:03:55;;;;;;;9.30;8.00;;;17.20;99.90;;;;;;5052174;28;20811;-70
2022/06/13 00:06:23;;;;;;;11.40;7.10;;;17.30;99.90;;;;;;5051605;28;20950;-72
2022/06/13 00:08:51;;;;;;;9.87;8.07;;;17.30;99.90;;;;;;5051214;28;20462;-72
2022/06/13 00:11:21;;;;;;;14.03;8.47;;;17.30;99.90;;;;;;5051227;28;20479;-71
2022/06/13 00:13:51;;;;;;;9.53;8.07;;;17.30;99.90;;;;;;5051787;28;20458;-73
2022/06/13 00:16:18;;;;;;;9.63;8.63;;;17.30;99.90;;;;;;5051204;28;20470;-72
2022/06/13 00:18:47;;;;;;;7.93;7.13;;;17.40;99.90;;;;;;5051765;28;20447;-72
2022/06/13 00:21:15;;;;;;;9.63;7.90;;;17.30;99.90;;;;;;5050777;28;20467;-72
2022/06/13 00:23:43;;;;;;;9.00;7.77;;;17.30;99.90;;;;;;5051758;28;20456;-70
2022/06/13 00:26:10;;;;;;;19.13;9.50;;;17.40;99.90;;;;;;5051220;28;20482;-71
2022/06/13 00:28:39;;;;;;;9.77;8.43;;;17.40;99.90;;;;;;5051361;28;20535;-71
2022/06/13 00:31:06;;;;;;;9.00;8.10;;;17.40;99.90;;;;;;5050825;28;20468;-70
2022/06/13 00:33:33;;;;;;;11.73;8.77;;;17.40;99.90;;;;;;5051563;28;20835;-71
2022/06/13 00:36:00;;;;;;;9.20;8.30;;;17.50;99.90;;;;;;5051136;28;20472;-71
2022/06/13 00:38:26;;;;;;;11.13;9.30;;;17.60;99.90;;;;;;5051146;28;20515;-71
2022/06/13 00:40:55;;;;;;;9.60;8.70;;;17.50;99.90;;;;;;5050445;28;21055;-71
2022/06/13 00:43:21;;;;;;;10.53;7.83;;;17.50;99.90;;;;;;5051131;28;20459;-71
2022/06/13 00:45:48;;;;;;;11.70;8.97;;;17.40;99.90;;;;;;5051028;28;20444;-71
2022/06/13 00:48:17;;;;;;;11.83;9.07;;;17.40;99.90;;;;;;5051194;28;20436;-71
2022/06/13 00:50:48;;;;;;;12.57;9.03;;;17.40;99.90;;;;;;5050404;28;20830;-72
2022/06/13 00:53:20;;;;;;;10.47;8.07;;;17.40;99.90;;;;;;5051731;28;20455;-71
2022/06/13 00:55:50;;;;;;;9.30;8.30;;;17.50;99.90;;;;;;5050624;28;20540;-72
2022/06/13 00:58:19;;;;;;;9.77;8.60;;;17.50;99.90;;;;;;5051096;28;20479;-72
2022/06/13 01:00:51;;;;;;;11.80;9.47;;;17.50;99.90;;;;;;5050253;28;20455;-71
2022/06/13 01:03:18;;;;;;;10.70;9.27;;;17.40;99.90;;;;;;5051000;28;20460;-71
2022/06/13 01:05:49;;;;;;;11.87;9.20;;;17.40;99.90;;;;;;5050599;28;20450;-70
2022/06/13 01:08:17;;;;;;;10.50;9.40;;;17.40;99.90;;;;;;5050831;28;20460;-70
2022/06/13 01:13:54;;;;;;;9.37;8.47;;;17.40;99.90;;;;;;5051098;28;20423;-71
2022/06/13 01:16:34;;;;;;;10.60;9.50;;;17.40;99.90;;;;;;5050800;28;20535;-73
2022/06/13 01:19:45;;;;;;;10.27;9.20;;;17.40;99.90;;;;;;5050651;28;20702;-70
2022/06/13 01:22:51;;;;;;;10.97;8.83;;;17.30;99.90;;;;;;5025105;28;20563;-70
2022/06/13 01:25:48;;;;;;;14.30;9.20;;;17.40;99.90;;;;;;5050729;28;20439;-71
2022/06/13 01:28:56;;;;;;;13.73;9.33;;;17.40;99.90;;;;;;5050072;28;20486;-70
2022/06/13 01:31:28;;;;;;;10.23;8.80;;;17.30;99.90;;;;;;4984734;28;20471;-70
2022/06/13 01:34:04;;;;;;;12.37;8.57;;;17.30;99.90;;;;;;5050578;28;20454;-70
2022/06/13 01:36:37;;;;;;;11.50;9.60;;;17.30;99.90;;;;;;5049915;28;20983;-70
2022/06/13 01:39:28;;;;;;;10.50;9.17;;;17.40;99.90;;;;;;5050247;28;20444;-71
2022/06/13 01:42:04;;;;;;;12.87;8.80;;;17.40;99.90;;;;;;5049303;28;20466;-71
2022/06/13 01:44:39;;;;;;;10.50;9.33;;;17.30;99.90;;;;;;5049810;28;20451;-70
2022/06/13 01:47:12;;;;;;;10.20;9.17;;;17.30;99.90;;;;;;5050233;28;20439;-70
2022/06/13 01:49:49;;;;;;;10.00;8.70;;;17.30;99.90;;;;;;5049979;28;20444;-71
2022/06/13 01:52:26;;;;;;;9.97;8.97;;;17.30;99.90;;;;;;5050089;28;20470;-71
2022/06/13 01:54:58;;;;;;;16.07;9.43;;;17.20;99.90;;;;;;5049764;28;20475;-72
2022/06/13 01:57:32;;;;;;;10.37;9.07;;;17.20;99.90;;;;;;5049859;28;20480;-72
2022/06/13 02:00:08;;;;;;;10.63;8.33;;;17.20;99.90;;;;;;5049175;28;20448;-70
2022/06/13 02:02:41;;;;;;;10.20;8.00;;;17.10;99.90;;;;;;5049613;28;20456;-71
2022/06/13 02:05:14;;;;;;;9.13;7.87;;;17.20;99.90;;;;;;5049682;28;20441;-70
2022/06/13 02:07:44;;;;;;;11.30;8.57;;;17.10;99.90;;;;;;5049799;28;20980;-71
2022/06/13 02:10:15;;;;;;;10.30;9.23;;;17.20;99.90;;;;;;5049481;28;20950;-71
2022/06/13 02:12:46;;;;;;;10.57;9.40;;;17.20;99.90;;;;;;5049773;28;21004;-72
2022/06/13 02:15:21;;;;;;;11.30;10.10;;;17.30;99.90;;;;;;5049638;28;20450;-71
2022/06/13 02:17:54;;;;;;;9.67;8.70;;;17.20;99.90;;;;;;5049662;28;20892;-71
2022/06/13 02:20:26;;;;;;;7.97;7.27;;;17.20;99.90;;;;;;5048960;28;20452;-71
2022/06/13 02:22:55;;;;;;;9.33;8.17;;;17.20;99.90;;;;;;5049479;28;20460;-71
2022/06/13 02:25:25;;;;;;;8.33;7.30;;;17.10;99.90;;;;;;5049007;28;20543;-71
2022/06/13 02:27:58;;;;;;;8.70;7.13;;;17.10;99.90;;;;;;5049680;28;20439;-71
2022/06/13 02:30:30;;;;;;;11.13;5.80;;;17.00;99.90;;;;;;5048969;28;20452;-71
2022/06/13 02:33:05;;;;;;;7.83;6.03;;;16.90;99.90;;;;;;5053786;28;20471;-70
2022/06/13 02:35:36;;;;;;;8.27;5.77;;;16.90;99.90;;;;;;5053422;28;20520;-71
2022/06/13 02:38:07;;;;;;;7.27;6.03;;;16.80;99.90;;;;;;5053677;28;20480;-70
2022/06/13 02:40:38;;;;;;;7.87;5.40;;;16.60;99.90;;;;;;5052932;28;20450;-69
2022/06/13 02:43:12;;;;;;;7.40;5.60;;;16.50;99.90;;;;;;5053672;28;20443;-72
2022/06/13 02:45:45;;;;;;;10.67;6.47;;;16.40;99.90;;;;;;5053629;28;20543;-71
2022/06/13 02:48:18;;;;;;;9.30;5.60;;;16.30;99.90;;;;;;5053727;28;20435;-71
2022/06/13 02:50:55;;;;;;;8.80;5.80;;;16.20;99.90;;;;;;5052657;28;20447;-73
2022/06/13 02:53:27;;;;;;;7.20;4.90;;;16.10;99.90;;;;;;5053253;28;20446;-72
2022/06/13 02:56:05;;;;;;;5.43;4.90;;;16.00;99.90;;;;;;5052904;28;20451;-71
2022/06/13 02:58:38;;;;;;;6.60;5.43;;;16.10;99.90;;;;;;5053129;28;20676;-70
2022/06/13 03:01:10;;;;;;;10.43;5.53;;;15.90;99.90;;;;;;5052300;28;20563;-70
2022/06/13 03:03:46;;;;;;;6.37;5.50;;;15.90;99.90;;;;;;5053222;28;20436;-70
2022/06/13 03:06:22;;;;;;;6.53;5.50;;;15.90;99.90;;;;;;5052854;28;20439;-70
2022/06/13 03:09:00;;;;;;;7.67;5.60;;;15.80;99.90;;;;;;5053013;28;20452;-70
2022/06/13 03:11:43;;;;;;;6.60;5.13;;;15.70;99.90;;;;;;5052084;28;20981;-71
2022/06/13 03:14:31;;;;;;;7.90;4.90;;;15.50;99.90;;;;;;5052934;28;21086;-70
2022/06/13 03:17:02;;;;;;;6.40;4.60;;;15.50;99.90;;;;;;5050365;28;20462;-70
2022/06/13 03:19:37;;;;;;;15.93;6.70;;;15.40;99.90;;;;;;5052771;28;20455;-71
2022/06/13 03:22:08;;;;;;;5.63;5.00;;;15.40;99.90;;;;;;5052550;28;20465;-71
2022/06/13 03:24:42;;;;;;;7.67;5.10;;;15.40;99.90;;;;;;5052597;28;20451;-71
2022/06/13 03:27:14;;;;;;;8.13;5.30;;;15.30;99.90;;;;;;5052929;28;20450;-70
2022/06/13 03:29:47;;;;;;;10.43;5.80;;;15.20;99.90;;;;;;5052609;28;20911;-70
2022/06/13 03:32:19;;;;;;;7.60;5.60;;;15.30;99.90;;;;;;5052643;28;20478;-69
2022/06/13 03:34:51;;;;;;;12.33;6.33;;;15.30;99.90;;;;;;5052519;28;20535;-70
2022/06/13 03:37:21;;;;;;;8.77;5.90;;;15.20;99.90;;;;;;5052601;28;20451;-70
2022/06/13 03:39:52;;;;;;;9.30;5.57;;;15.10;99.90;;;;;;5051832;28;21012;-70
2022/06/13 03:42:26;;;;;;;17.33;5.80;;;15.10;99.90;;;;;;5050956;28;21016;-71
2022/06/13 03:44:57;;;;;;;12.47;5.40;;;15.10;99.90;;;;;;5052213;28;20961;-70
2022/06/13 03:47:32;;;;;;;8.60;5.53;;;15.10;99.90;;;;;;5052846;28;20448;-69
2022/06/13 03:50:10;;;;;;;8.53;5.57;;;15.10;99.90;;;;;;5052013;28;20448;-70
2022/06/13 03:52:40;;;;;;;6.97;4.90;;;15.10;99.90;;;;;;5052562;28;20468;-70
2022/06/13 03:55:11;;;;;;;10.03;5.40;;;15.00;99.90;;;;;;5052068;28;20448;-70
2022/06/13 03:57:43;;;;;;;9.23;5.10;;;15.00;99.90;;;;;;5052608;28;20483;-71
2022/06/13 04:00:14;;;;;;;9.33;5.50;;;14.90;99.90;;;;;;5051523;28;20452;-71
2022/06/13 04:02:43;;;;;;;9.73;5.33;;;14.90;99.90;;;;;;5052212;28;20476;-70
2022/06/13 04:05:19;;;;;;;6.97;4.93;;;14.90;99.90;;;;;;5051927;28;20450;-69
2022/06/13 04:07:46;;;;;;;7.70;4.87;;;14.90;99.90;;;;;;5052223;28;20455;-70
2022/06/13 04:10:17;;;;;;;11.53;5.50;;;14.90;99.90;;;;;;5050940;28;20444;-71
2022/06/13 04:13:06;;;;;;;8.07;4.63;;;14.90;99.90;;;;;;5051999;28;20464;-68
2022/06/13 04:15:56;;;;;;;14.40;5.17;;;14.90;99.90;;;;;;5051536;28;20502;-70
2022/06/13 04:18:38;;;;;;;8.47;4.87;;;14.90;99.90;;;;;;5050730;28;20472;-70
2022/06/13 04:21:18;;;;;;;10.00;5.60;;;14.90;99.90;;;;;;5050967;28;20459;-71
2022/06/13 04:23:52;;;;;;;7.10;4.10;;;15.10;99.90;;;;;;5051605;28;20455;-70
2022/06/13 04:26:21;;;;;;;8.87;4.70;;;15.10;99.90;;;;;;5051269;28;20505;-69
2022/06/13 04:28:54;;;;;;;9.37;5.23;;;15.10;99.90;;;;;;5051493;28;20523;-70
2022/06/13 04:31:23;;;;;;;9.37;4.70;;;15.10;99.90;;;;;;5050882;28;20474;-71
2022/06/13 04:33:54;;;;;;;8.30;4.33;;;15.20;99.90;;;;;;5051548;28;20458;-70
2022/06/13 04:36:24;;;;;;;14.90;5.33;;;15.30;99.90;;;;;;5051164;28;20448;-70
2022/06/13 04:38:54;;;;;;;9.87;4.47;;;15.30;99.90;;;;;;5051315;28;20968;-70
2022/06/13 04:41:25;;;;;;;7.63;4.53;;;15.40;99.90;;;;;;5050365;28;20474;-69
2022/06/13 04:43:56;;;;;;;9.97;4.97;;;15.40;99.90;;;;;;5051478;28;20487;-70
2022/06/13 04:46:25;;;;;;;6.03;4.13;;;15.50;99.90;;;;;;5050820;28;20510;-69
2022/06/13 04:48:55;;;;;;;8.20;4.70;;;15.50;99.90;;;;;;5051172;28;20452;-70
2022/06/13 04:51:26;;;;;;;5.83;3.87;;;15.50;99.90;;;;;;5050117;28;20460;-70
2022/06/13 04:53:57;;;;;;;8.30;4.37;;;15.50;99.90;;;;;;5050693;28;20881;-70
2022/06/13 04:56:25;;;;;;;8.23;4.00;;;15.50;99.90;;;;;;5050741;28;20448;-70
2022/06/13 04:58:54;;;;;;;8.50;4.90;;;15.50;99.90;;;;;;5050895;28;20579;-70
2022/06/13 05:01:25;;;;;;;8.77;5.20;;;15.40;99.90;;;;;;5050099;28;20551;-70
2022/06/13 05:03:53;;;;;;;8.80;5.37;;;15.40;99.90;;;;;;5050841;28;20444;-69
2022/06/13 05:06:27;;;;;;;9.70;4.50;;;15.40;99.90;;;;;;5050285;28;20448;-70
2022/06/13 05:08:57;;;;;;;9.07;4.70;;;15.40;99.90;;;;;;5050524;28;20448;-69
2022/06/13 05:11:28;;;;;;;8.30;4.90;;;15.30;99.90;;;;;;5049750;28;20475;-70
2022/06/13 05:13:59;;;;;;;7.53;5.00;;;15.30;99.90;;;;;;5050696;28;21000;-69
2022/06/13 05:16:39;;;;;;;11.17;5.40;;;15.30;99.90;;;;;;5050287;28;20971;-69
2022/06/13 05:19:27;;;;;;;7.67;5.40;;;15.40;99.90;;;;;;5050627;28;20494;-70
2022/06/13 05:22:06;;;;;;;8.50;5.33;;;15.40;99.90;;;;;;5049896;28;20466;-69
2022/06/13 05:25:14;;;;;;;7.60;4.57;;;15.40;99.90;;;;;;5050397;28;20455;-69
2022/06/13 05:27:41;;;;;;;9.40;5.00;;;15.40;99.90;;;;;;5050316;28;20462;-70
2022/06/13 05:30:13;;;;;;;7.30;4.63;;;15.50;99.90;;;;;;5049610;28;20452;-69
2022/06/13 05:32:40;;;;;;;8.10;4.47;;;15.50;99.90;;;;;;5050136;28;20476;-70
2022/06/13 05:35:07;;;;;;;9.30;5.30;;;15.50;99.90;;;;;;5049879;28;20937;-69
2022/06/13 05:37:35;;;;;;;8.70;4.40;;;15.50;99.90;;;;;;5050091;28;20535;-68
2022/06/13 05:40:02;;;;;;;7.80;6.10;;;15.60;99.90;;;;;;5049402;28;20511;-70
2022/06/13 05:42:29;;;;;;;8.17;5.13;;;15.70;99.90;;;;;;5050072;28;20474;-70
2022/06/13 05:44:56;;;;;;;8.57;5.00;;;15.70;99.90;;;;;;5049723;28;20458;-70
2022/06/13 05:47:23;;;;;;;9.80;4.57;;;15.70;99.90;;;;;;5050141;28;20439;-70
2022/06/13 05:49:49;;;;;;;8.73;5.20;;;15.80;99.90;;;;;;5049293;28;20892;-70
2022/06/13 05:52:16;;;;;;;7.50;5.07;;;15.90;99.90;;;;;;5049960;28;20472;-70
2022/06/13 05:54:44;;;;;;;11.10;5.60;;;15.90;99.90;;;;;;5049752;28;20906;-70
2022/06/13 05:57:12;;;;;;;7.87;4.20;;;16.10;99.90;;;;;;5049944;28;20518;-69
2022/06/13 05:59:39;;;;;;;8.13;4.40;;;16.10;99.90;;;;;;5049938;28;20513;-69
2022/06/13 06:02:05;;;;;;;9.53;5.00;;;16.20;99.90;;;;;;5049280;28;20885;-70
2022/06/13 06:04:32;;;;;;;11.30;4.10;;;16.30;99.90;;;;;;5049417;28;21141;-70
2022/06/13 06:06:59;;;;;;;11.33;4.50;;;16.40;99.90;;;;;;5049374;28;20451;-71
2022/06/13 06:09:26;;;;;;;11.33;4.40;;;16.40;99.90;;;;;;5049666;28;20904;-69
2022/06/13 06:11:54;;;;;;;7.47;4.10;;;16.50;99.90;;;;;;5048902;28;20472;-69
2022/06/13 06:14:21;;;;;;;10.03;4.00;;;16.60;99.90;;;;;;5049411;28;20448;-71
2022/06/13 06:16:48;;;;;;;9.23;4.53;;;16.70;99.90;;;;;;5049657;28;20456;-69
2022/06/13 06:19:14;;;;;;;7.53;3.77;;;16.80;99.90;;;;;;5049428;28;20488;-69
2022/06/13 06:21:41;;;;;;;6.83;4.17;;;16.90;99.90;;;;;;5048838;28;20570;-70
2022/06/13 06:24:08;;;;;;;7.30;4.00;;;16.90;99.90;;;;;;5049900;28;20535;-70
2022/06/13 06:26:36;;;;;;;8.30;3.70;;;17.00;99.90;;;;;;5049387;28;20878;-70
2022/06/13 06:29:04;;;;;;;9.03;3.80;;;17.10;99.90;;;;;;5049781;28;20447;-69
2022/06/13 06:31:32;;;;;;;7.13;3.40;;;17.20;99.90;;;;;;5048725;28;20516;-69
2022/06/13 06:33:59;;;;;;;6.80;3.83;;;17.20;99.90;;;;;;5049712;28;20811;-68
2022/06/13 06:36:27;;;;;;;7.33;3.50;;;17.30;99.90;;;;;;5049386;28;20467;-70
2022/06/13 06:38:54;;;;;;;5.53;3.40;;;17.40;99.90;;;;;;5049766;28;20614;-67
2022/06/13 06:41:20;;;;;;;6.80;4.20;;;17.40;99.90;;;;;;5048708;28;20554;-70
2022/06/13 06:43:47;;;;;;;7.23;3.57;;;17.40;99.90;;;;;;5049401;28;20498;-68
2022/06/13 06:46:17;;;;;;;9.60;3.90;;;17.50;99.90;;;;;;5048965;28;20444;-70
2022/06/13 06:48:43;;;;;;;8.67;3.33;;;17.60;99.90;;;;;;5049244;28;20450;-68
2022/06/13 06:51:14;;;;;;;9.80;3.67;;;17.60;99.90;;;;;;5048461;28;20499;-69
2022/06/13 07:01:55;;;;;;;10.97;5.03;;;18.10;99.90;;;;;;5048442;28;20510;-70
2022/06/13 07:04:22;;;;;;;8.70;3.57;;;18.30;99.90;;;;;;5048843;28;20444;-69
2022/06/13 07:06:49;;;;;;;8.30;3.60;;;18.50;99.90;;;;;;5049231;28;20523;-69
2022/06/13 07:09:16;;;;;;;7.70;3.47;;;18.60;99.90;;;;;;5049099;28;20951;-69
2022/06/13 07:11:56;;;;;;;5.70;3.60;;;18.80;99.90;;;;;;5048426;28;20559;-71
2022/06/13 07:14:25;;;;;;;5.60;3.20;;;18.80;99.90;;;;;;5048783;28;20542;-71
2022/06/13 07:16:52;;;;;;;5.30;3.10;;;18.70;99.90;;;;;;5050023;28;20440;-70
2022/06/13 07:19:20;;;;;;;5.43;3.73;;;18.60;99.90;;;;;;5052736;28;20482;-71
2022/06/13 07:21:47;;;;;;;8.40;3.60;;;18.40;99.90;;;;;;5051704;28;20566;-67
2022/06/13 07:24:15;;;;;;;10.37;3.83;;;18.40;99.90;;;;;;5052723;28;20538;-70
2022/06/13 07:26:42;;;;;;;8.50;3.53;;;18.40;99.90;;;;;;5052739;28;20521;-70
2022/06/13 07:29:09;;;;;;;7.40;3.77;;;18.50;99.90;;;;;;5052782;28;20922;-69
2022/06/13 07:31:39;;;;;;;9.07;3.60;;;18.60;99.90;;;;;;5051629;28;20463;-70
2022/06/13 07:34:07;;;;;;;9.90;3.67;;;18.60;99.90;;;;;;5052508;28;20491;-70
2022/06/13 07:36:36;;;;;;;6.10;3.20;;;18.50;99.90;;;;;;5052040;28;20526;-68
2022/06/13 07:39:02;;;;;;;4.83;3.07;;;18.60;99.90;;;;;;5052427;28;20480;-70
2022/06/13 07:41:29;;;;;;;6.37;3.57;;;18.70;99.90;;;;;;5051590;28;20474;-68
2022/06/13 07:43:57;;;;;;;5.47;2.57;;;18.80;99.90;;;;;;5052239;28;20451;-69
2022/06/13 07:46:27;;;;;;;5.43;3.30;;;18.80;99.90;;;;;;5051732;28;20447;-69
2022/06/13 07:48:54;;;;;;;6.80;3.43;;;18.80;99.90;;;;;;5051909;28;20444;-69
2022/06/13 07:51:22;;;;;;;10.23;3.73;;;19.00;99.90;;;;;;5051480;28;20472;-70
2022/06/13 07:53:50;;;;;;;8.20;3.57;;;19.10;99.90;;;;;;5051875;28;20451;-69
2022/06/13 07:56:20;;;;;;;7.63;3.87;;;19.30;99.90;;;;;;5051709;28;20479;-70
2022/06/13 07:58:49;;;;;;;8.23;3.77;;;19.50;99.90;;;;;;5052138;28;20483;-69
2022/06/13 08:01:17;;;;;;;7.28;3.33;;;19.60;99.90;;;;;;5050909;28;20448;-69
2022/06/13 08:03:44;;;;;;;7.27;3.40;;;19.90;99.90;;;;;;5052242;28;20205;-70
2022/06/13 08:06:12;;;;;;;11.90;4.40;;;19.90;99.90;;;;;;5051691;28;20448;-70
2022/06/13 08:08:40;;;;;;;7.30;3.63;;;20.00;99.90;;;;;;5051860;28;20509;-70
2022/06/13 08:11:10;;;;;;;5.33;3.23;;;20.00;99.90;;;;;;5050989;28;20468;-69
2022/06/13 08:13:39;;;;;;;5.97;4.27;;;19.90;99.90;;;;;;5051647;28;20441;-70
2022/06/13 08:16:07;;;;;;;8.13;3.40;;;20.10;99.90;;;;;;5051603;28;20455;-70
2022/06/13 08:18:34;;;;;;;6.13;3.83;;;20.10;99.90;;;;;;5051501;28;20972;-71
2022/06/13 08:21:01;;;;;;;7.77;5.03;;;19.90;99.90;;;;;;5050804;28;20563;-71
2022/06/13 08:23:28;;;;;;;5.20;3.50;;;19.80;99.90;;;;;;5051355;28;20444;-67
2022/06/13 08:25:55;;;;;;;6.47;3.43;;;19.80;99.90;;;;;;5051036;28;20440;-70
2022/06/13 08:28:24;;;;;;;5.60;2.80;;;19.90;99.90;;;;;;5050514;28;20456;-69
2022/06/13 08:30:53;;;;;;;7.50;3.77;;;20.00;99.90;;;;;;5050288;28;20450;-69
2022/06/13 08:33:21;;;;;;;6.50;3.10;;;20.30;99.90;;;;;;5051250;28;20455;-69
2022/06/13 08:35:49;;;;;;;5.23;2.97;;;20.40;99.90;;;;;;5051033;28;20484;-69
2022/06/13 08:38:17;;;;;;;4.53;3.60;;;20.60;99.90;;;;;;5051177;28;20494;-70
2022/06/13 08:40:52;;;;;;;8.90;3.43;;;20.60;99.90;;;;;;5050059;28;20483;-69
2022/06/13 08:43:37;;;;;;;6.73;3.50;;;20.50;99.90;;;;;;5051072;28;20470;-69
2022/06/13 08:46:12;;;;;;;6.47;3.70;;;20.50;99.90;;;;;;5050797;28;20646;-70
2022/06/13 08:48:44;;;;;;;6.80;3.60;;;20.50;99.90;;;;;;5050964;28;20454;-70
2022/06/13 08:51:13;;;;;;;6.00;4.20;;;20.40;99.90;;;;;;5050185;28;20475;-70
2022/06/13 08:53:48;;;;;;;9.20;3.50;;;20.40;99.90;;;;;;5051048;28;20453;-69
2022/06/13 08:56:19;;;;;;;6.33;4.10;;;20.40;99.90;;;;;;5050562;28;20447;-69
2022/06/13 08:58:53;;;;;;;6.57;4.40;;;20.50;99.90;;;;;;5050887;28;20448;-70
2022/06/13 09:01:26;;;;;;;5.60;3.90;;;20.60;99.90;;;;;;5049957;28;20553;-71
2022/06/13 09:04:01;;;;;;;6.60;3.50;;;20.50;99.90;;;;;;5051277;28;20437;-68
2022/06/13 09:06:35;;;;;;;11.50;3.60;;;20.70;99.90;;;;;;5050579;28;20453;-70
2022/06/13 09:09:08;;;;;;;9.67;3.47;;;20.90;99.90;;;;;;5050846;28;20478;-71
2022/06/13 09:11:42;;;;;;;6.90;3.83;;;21.10;99.90;;;;;;5050116;28;20479;-68
2022/06/13 09:14:17;;;;;;;7.03;3.90;;;21.00;99.90;;;;;;5050751;28;20454;-70
2022/06/13 09:16:50;;;;;;;14.80;5.80;;;20.80;99.90;;;;;;5051063;28;20522;-70
2022/06/13 09:19:23;;;;;;;7.97;4.13;;;20.60;99.90;;;;;;5050759;28;20482;-71
2022/06/13 09:21:54;;;;;;;8.53;4.10;;;20.70;99.90;;;;;;5049770;28;20555;-69
2022/06/13 09:24:27;;;;;;;5.70;3.30;;;21.00;99.90;;;;;;5050234;28;20452;-70
2022/06/13 09:26:57;;;;;;;8.80;4.50;;;21.20;99.90;;;;;;5050547;28;20830;-71
2022/06/13 09:29:32;;;;;;;7.17;3.70;;;21.20;99.90;;;;;;5050490;28;20444;-70
2022/06/13 09:32:04;;;;;;;6.20;3.57;;;21.10;99.90;;;;;;5049440;28;20879;-70
2022/06/13 09:34:37;;;;;;;5.03;3.60;;;21.00;99.90;;;;;;5049816;28;20470;-70
2022/06/13 09:37:10;;;;;;;6.13;3.50;;;21.10;99.90;;;;;;5049835;28;20448;-69
2022/06/13 09:39:37;;;;;;;7.47;3.20;;;21.00;99.90;;;;;;5049956;28;20488;-69
2022/06/13 09:42:26;;;;;;;5.63;3.40;;;20.80;99.90;;;;;;5048596;28;20468;-69
2022/06/13 09:45:26;;;;;;;7.03;3.43;;;20.80;99.90;;;;;;5049742;28;20459;-69
2022/06/13 09:48:04;;;;;;;4.93;3.37;;;21.00;99.90;;;;;;5050084;28;20463;-70
2022/06/13 09:50:37;;;;;;;5.70;3.03;;;21.20;99.90;;;;;;5049156;28;20654;-70
2022/06/13 09:53:12;;;;;;;7.83;3.97;;;21.30;99.90;;;;;;5049711;28;20819;-69
2022/06/13 09:55:46;;;;;;;9.63;3.10;;;21.40;99.70;;;;;;5049356;28;20453;-70
2022/06/13 09:58:23;;;;;;;7.23;3.30;;;21.60;99.90;;;;;;5050024;28;20448;-71
2022/06/13 10:01:01;;;;;;;6.67;2.90;;;21.90;99.90;;;;;;5048826;28;20492;-70
2022/06/13 10:03:38;;;;;;;7.10;3.03;;;22.40;97.20;;;;;;5049844;28;20453;-70
2022/06/13 10:06:13;;;;;;;6.33;2.73;;;22.70;95.40;;;;;;5049305;28;20452;-71
2022/06/13 10:09:01;;;;;;;5.20;3.17;;;23.60;95.50;;;;;;5049615;28;20461;-70
2022/06/13 10:11:38;;;;;;;5.30;2.93;;;24.10;94.80;;;;;;5048837;28;20551;-71
2022/06/13 10:14:48;;;;;;;5.87;3.20;;;23.60;94.00;;;;;;5049550;28;20454;-72
2022/06/13 10:17:49;;;;;;;6.53;3.77;;;24.00;95.40;;;;;;5044862;28;20444;-71
2022/06/13 10:20:24;;;;;;;7.23;3.03;;;24.00;94.70;;;;;;5043789;28;20573;-72
2022/06/13 10:22:59;;;;;;;8.10;3.03;;;23.60;94.70;;;;;;5049431;28;21001;-69
2022/06/13 10:25:39;;;;;;;4.50;2.93;;;23.70;93.40;;;;;;5049273;28;20505;-71
2022/06/13 10:28:20;;;;;;;5.80;2.53;;;24.20;92.30;;;;;;5049561;28;20447;-71
2022/06/13 10:30:57;;;;;;;8.40;3.10;;;24.20;90.60;;;;;;5048351;28;20447;-71
2022/06/13 10:33:47;;;;;;;7.23;2.77;;;24.40;90.80;;;;;;5049492;28;20451;-71
2022/06/13 10:36:18;;;;;;;9.43;3.07;;;24.60;91.60;;;;;;5048999;28;20965;-72
2022/06/13 10:38:56;;;;;;;4.90;2.93;;;24.70;91.50;;;;;;5049714;28;20463;-71
2022/06/13 10:41:25;;;;;;;5.23;3.13;;;24.40;91.60;;;;;;5048903;28;20495;-72
2022/06/13 10:43:52;;;;;;;9.20;3.63;;;24.40;91.10;;;;;;5050034;28;20451;-69
2022/06/13 10:46:19;;;;;;;4.47;2.60;;;24.00;90.70;;;;;;5049666;28;20454;-71
2022/06/13 10:48:54;;;;;;;5.73;2.87;;;23.70;92.40;;;;;;5050891;28;20497;-70
2022/06/13 10:51:22;;;;;;;5.97;2.70;;;24.10;88.40;;;;;;5049707;28;20463;-70
2022/06/13 10:53:55;;;;;;;5.67;2.70;;;24.50;89.00;;;;;;5054020;28;20976;-70
2022/06/13 10:56:25;;;;;;;4.17;2.63;;;24.60;90.10;;;;;;5052992;28;20498;-70
2022/06/13 10:58:56;;;;;;;4.33;2.90;;;24.00;88.60;;;;;;5053269;28;20454;-70
2022/06/13 11:01:24;;;;;;;3.83;2.40;;;23.70;90.50;;;;;;5052402;28;20562;-71
2022/06/13 11:04:04;;;;;;;6.00;2.70;;;24.00;89.80;;;;;;5053216;28;20509;-72
2022/06/13 11:06:37;;;;;;;7.60;2.50;;;24.40;85.90;;;;;;5052853;28;20534;-70
2022/06/13 11:09:07;;;;;;;5.90;2.43;;;24.30;89.20;;;;;;5053183;28;20455;-71
2022/06/13 11:11:40;;;;;;;5.20;2.80;;;24.40;86.20;;;;;;5052543;28;20464;-70
2022/06/13 11:14:24;;;;;;;6.40;2.70;;;25.00;85.10;;;;;;5052868;28;21079;-71
2022/06/13 11:22:41;;;;;;;5.13;2.50;;;25.50;86.40;;;;;;5052854;28;20892;-70
2022/06/13 11:25:16;;;;;;;8.33;2.63;;;25.90;84.90;;;;;;5052380;28;20440;-70
2022/06/13 11:27:46;;;;;;;6.53;3.33;;;26.10;83.60;;;;;;5052780;28;21001;-71
2022/06/13 11:30:45;;;;;;;4.67;2.60;;;26.30;82.80;;;;;;5052142;28;20897;-70
2022/06/13 11:33:31;;;;;;;6.50;2.47;;;26.50;85.00;;;;;;5052596;28;20451;-71
2022/06/13 11:36:01;;;;;;;4.47;2.50;;;26.50;80.20;;;;;;5052322;28;20482;-71
2022/06/13 11:38:30;;;;;;;6.37;3.10;;;26.10;80.40;;;;;;5052595;28;20495;-70
2022/06/13 11:41:07;;;;;;;6.77;3.57;;;25.70;83.70;;;;;;5051634;28;20492;-70
2022/06/13 11:43:42;;;;;;;4.63;2.40;;;25.30;79.60;;;;;;5052545;28;21228;-70
2022/06/13 11:46:15;;;;;;;5.80;2.83;;;25.60;84.10;;;;;;5052138;28;20470;-68
2022/06/13 11:48:47;;;;;;;4.23;2.63;;;25.80;81.80;;;;;;5052454;28;20458;-70
2022/06/13 11:51:23;;;;;;;4.20;2.30;;;25.20;76.60;;;;;;5051876;28;20467;-70
2022/06/13 11:53:52;;;;;;;4.80;2.80;;;24.50;81.70;;;;;;5052614;28;20447;-70
2022/06/13 11:56:24;;;;;;;4.60;2.73;;;24.90;80.30;;;;;;5052193;28;20830;-70
2022/06/13 11:58:53;;;;;;;7.37;3.30;;;24.80;80.40;;;;;;5052160;28;20451;-70
2022/06/13 12:01:27;;;;;;;4.43;2.77;;;24.40;81.70;;;;;;5051289;28;21056;-70
2022/06/13 12:04:05;;;;;;;5.73;2.90;;;24.00;83.10;;;;;;5051232;28;20498;-70
2022/06/13 12:06:38;;;;;;;7.00;2.90;;;23.90;87.70;;;;;;5051797;28;20520;-70
2022/06/13 12:09:14;;;;;;;5.80;3.10;;;24.80;88.50;;;;;;5051636;28;20456;-72
2022/06/13 12:11:47;;;;;;;3.80;2.30;;;25.70;82.70;;;;;;5050913;28;20456;-70
2022/06/13 12:14:15;;;;;;;5.20;3.20;;;25.20;80.00;;;;;;5051649;28;20478;-71
2022/06/13 12:16:54;;;;;;;4.97;2.93;;;24.70;83.60;;;;;;5051694;28;20448;-69
2022/06/13 12:19:34;;;;;;;5.57;2.50;;;24.70;87.30;;;;;;5051609;28;20506;-72
2022/06/13 12:22:09;;;;;;;4.10;2.50;;;24.30;84.70;;;;;;5050908;28;20567;-69
2022/06/13 12:24:48;;;;;;;5.67;2.87;;;24.00;86.10;;;;;;5051436;28;20451;-69
2022/06/13 12:27:26;;;;;;;4.10;2.33;;;24.70;84.90;;;;;;5051517;28;20513;-71
2022/06/13 12:30:09;;;;;;;6.60;2.37;;;25.80;83.50;;;;;;5050817;28;20448;-72
2022/06/13 12:32:39;;;;;;;3.60;2.20;;;25.10;80.40;;;;;;5051499;28;20471;-70
2022/06/13 12:35:30;;;;;;;6.27;2.97;;;24.40;79.80;;;;;;5051118;28;20521;-71
2022/06/13 12:38:09;;;;;;;6.87;2.97;;;24.70;82.60;;;;;;5051468;28;20547;-71
2022/06/13 12:40:53;;;;;;;5.80;3.10;;;25.50;78.20;;;;;;5050298;28;20549;-69
2022/06/13 12:43:54;;;;;;;3.67;2.30;;;25.70;76.40;;;;;;5051338;28;20456;-72
2022/06/13 12:46:36;;;;;;;3.83;2.00;;;26.50;75.80;;;;;;5047445;28;20908;-69
2022/06/13 12:49:21;;;;;;;4.93;1.50;;;27.70;71.30;;;;;;5051328;28;20444;-70
2022/06/13 12:51:57;;;;;;;3.87;2.00;;;27.90;65.80;;;;;;5050263;28;20460;-71
2022/06/13 12:54:42;;;;;;;5.10;1.97;;;27.70;66.00;;;;;;5050617;28;20539;-69
2022/06/13 12:57:18;;;;;;;5.70;1.83;;;27.80;63.70;;;;;;5050601;28;20459;-68
2022/06/13 12:59:57;;;;;;;4.07;2.00;;;27.90;62.90;;;;;;5050325;28;20559;-68
2022/06/13 13:02:33;;;;;;;2.43;1.50;;;28.10;65.50;;;;;;5050586;28;20466;-69
2022/06/13 13:05:14;;;;;;;2.80;1.70;;;28.20;61.30;;;;;;5050355;28;20526;-71
2022/06/13 13:07:50;;;;;;;3.20;1.60;;;27.70;59.70;;;;;;5050662;28;20487;-71
2022/06/13 13:10:36;;;;;;;3.80;2.10;;;27.40;61.80;;;;;;5049901;28;20478;-70
2022/06/13 13:13:35;;;;;;;4.20;1.70;;;27.50;63.00;;;;;;5050598;28;20440;-69
2022/06/13 13:16:07;;;;;;;6.63;2.10;;;27.70;67.10;;;;;;5050283;28;20447;-69
2022/06/13 13:18:48;;;;;;;3.27;1.80;;;28.00;65.80;;;;;;5050502;28;20956;-69
2022/06/13 13:21:21;;;;;;;5.13;1.60;;;28.60;61.00;;;;;;5049364;28;20545;-70
2022/06/13 13:23:57;;;;;;;4.87;1.87;;;29.70;60.80;;;;;;5050308;28;20436;-68
2022/06/13 13:26:38;;;;;;;4.20;1.57;;;29.50;57.90;;;;;;5050094;28;20450;-69
2022/06/13 13:29:14;;;;;;;2.40;1.77;;;29.00;59.00;;;;;;5050306;28;20451;-70
2022/06/13 13:31:45;;;;;;;5.57;2.00;;;27.80;60.20;;;;;;5049287;28;20516;-68
2022/06/13 13:34:33;;;;;;;5.27;2.20;;;27.20;60.20;;;;;;5050271;28;20976;-68